sensor_id;sensor_type;location;lat;lon;timestamp;temperature;humidity
21184;DHT22;18176;49.502;11.754;2022-11-20T00:02:41;-0.90;99.90
21184;DHT22;18176;49.502;11.754;2022-11-20T00:06:44;-0.90;99.90
21184;DHT22;18176;49.502;11.754;2022-11-20T00:10:44;-0.90;99.90
21184;DHT22;18176;49.502;11.754;2022-11-20T00:14:44;-0.90;99.90
21184;DHT22;18176;49.502;11.754;2022-11-20T00:18:44;-1.00;99.90
21184;DHT22;18176;49.502;11.754;2022-11-20T00:22:48;-0.90;99.90
21184;DHT22;18176;49.502;11.754;2022-11-20T00:26:49;-0.90;99.90
21184;DHT22;18176;49.502;11.754;2022-11-20T00:30:49;-0.90;99.90
21184;DHT22;18176;49.502;11.754;2022-11-20T00:34:49;-0.90;99.90
21184;DHT22;18176;49.502;11.754;2022-11-20T00:38:55;-0.90;99.90
21184;DHT22;18176;49.502;11.754;2022-11-20T00:42:56;-0.90;99.90
21184;DHT22;18176;49.502;11.754;2022-11-20T00:46:56;-0.90;99.90
21184;DHT22;18176;49.502;11.754;2022-11-20T00:50:56;-0.90;99.90
21184;DHT22;18176;49.502;11.754;2022-11-20T00:54:59;-0.90;99.90
21184;DHT22;18176;49.502;11.754;2022-11-20T00:59:00;-1.00;99.90
21184;DHT22;18176;49.502;11.754;2022-11-20T01:03:00;-0.90;99.90
21184;DHT22;18176;49.502;11.754;2022-11-20T01:07:00;-0.90;99.90
21184;DHT22;18176;49.502;11.754;2022-11-20T01:11:05;-0.90;99.90
21184;DHT22;18176;49.502;11.754;2022-11-20T01:15:07;-0.90;99.90
21184;DHT22;18176;49.502;11.754;2022-11-20T01:19:12;-0.90;99.90
21184;DHT22;18176;49.502;11.754;2022-11-20T01:23:15;-0.90;99.90
21184;DHT22;18176;49.502;11.754;2022-11-20T01:27:18;-0.90;99.90
21184;DHT22;18176;49.502;11.754;2022-11-20T01:31:20;-0.80;99.90
21184;DHT22;18176;49.502;11.754;2022-11-20T01:35:21;-0.80;99.90
21184;DHT22;18176;49.502;11.754;2022-11-20T01:39:23;-0.80;99.90
21184;DHT22;18176;49.502;11.754;2022-11-20T01:43:27;-0.80;99.90
21184;DHT22;18176;49.502;11.754;2022-11-20T01:47:31;-0.80;99.90
21184;DHT22;18176;49.502;11.754;2022-11-20T01:51:40;-0.80;99.90
21184;DHT22;18176;49.502;11.754;2022-11-20T01:55:46;-0.80;99.90
21184;DHT22;18176;49.502;11.754;2022-11-20T01:59:57;-0.70;99.90
21184;DHT22;18176;49.502;11.754;2022-11-20T02:04:08;-0.70;99.90
21184;DHT22;18176;49.502;11.754;2022-11-20T02:08:09;-0.70;99.90
21184;DHT22;18176;49.502;11.754;2022-11-20T02:12:10;-0.60;99.90
21184;DHT22;18176;49.502;11.754;2022-11-20T02:16:36;-0.60;99.90
21184;DHT22;18176;49.502;11.754;2022-11-20T02:20:39;-0.60;99.90
21184;DHT22;18176;49.502;11.754;2022-11-20T02:24:45;-0.50;99.90
21184;DHT22;18176;49.502;11.754;2022-11-20T02:28:47;-0.50;99.90
21184;DHT22;18176;49.502;11.754;2022-11-20T02:32:47;-0.50;99.90
21184;DHT22;18176;49.502;11.754;2022-11-20T02:36:48;-0.50;99.90
21184;DHT22;18176;49.502;11.754;2022-11-20T02:40:53;-0.50;99.90
21184;DHT22;18176;49.502;11.754;2022-11-20T02:44:53;-0.50;99.90
21184;DHT22;18176;49.502;11.754;2022-11-20T02:48:53;-0.40;99.90
21184;DHT22;18176;49.502;11.754;2022-11-20T02:52:54;-0.40;99.90
21184;DHT22;18176;49.502;11.754;2022-11-20T02:56:56;-0.50;99.90
21184;DHT22;18176;49.502;11.754;2022-11-20T03:00:56;-0.40;99.90
21184;DHT22;18176;49.502;11.754;2022-11-20T03:04:57;-0.40;99.90
21184;DHT22;18176;49.502;11.754;2022-11-20T03:08:57;-0.40;99.90
21184;DHT22;18176;49.502;11.754;2022-11-20T03:13:00;-0.40;99.90
21184;DHT22;18176;49.502;11.754;2022-11-20T03:17:00;-0.40;99.90
21184;DHT22;18176;49.502;11.754;2022-11-20T03:21:00;-0.40;99.90
21184;DHT22;18176;49.502;11.754;2022-11-20T03:25:00;-0.40;99.90
21184;DHT22;18176;49.502;11.754;2022-11-20T03:29:04;-0.40;99.90
21184;DHT22;18176;49.502;11.754;2022-11-20T03:33:04;-0.40;99.90
21184;DHT22;18176;49.502;11.754;2022-11-20T03:37:05;-0.40;99.90
21184;DHT22;18176;49.502;11.754;2022-11-20T03:41:08;-0.50;99.90
21184;DHT22;18176;49.502;11.754;2022-11-20T03:45:12;-0.40;99.90
21184;DHT22;18176;49.502;11.754;2022-11-20T03:49:12;-0.40;99.90
21184;DHT22;18176;49.502;11.754;2022-11-20T03:53:13;-0.40;99.90
21184;DHT22;18176;49.502;11.754;2022-11-20T03:57:13;-0.40;99.90
21184;DHT22;18176;49.502;11.754;2022-11-20T04:01:18;-0.40;99.90
21184;DHT22;18176;49.502;11.754;2022-11-20T04:05:20;-0.40;99.90
21184;DHT22;18176;49.502;11.754;2022-11-20T04:09:20;-0.40;99.90
21184;DHT22;18176;49.502;11.754;2022-11-20T04:13:20;-0.40;99.90
21184;DHT22;18176;49.502;11.754;2022-11-20T04:17:23;-0.40;99.90
21184;DHT22;18176;49.502;11.754;2022-11-20T04:21:24;-0.40;99.90
21184;DHT22;18176;49.502;11.754;2022-11-20T04:25:25;-0.40;99.90
21184;DHT22;18176;49.502;11.754;2022-11-20T04:29:25;-0.40;99.90
21184;DHT22;18176;49.502;11.754;2022-11-20T04:33:27;-0.30;99.90
21184;DHT22;18176;49.502;11.754;2022-11-20T04:37:30;-0.30;99.90
21184;DHT22;18176;49.502;11.754;2022-11-20T04:41:31;-0.30;99.90
21184;DHT22;18176;49.502;11.754;2022-11-20T04:45:33;-0.30;99.90
21184;DHT22;18176;49.502;11.754;2022-11-20T04:49:36;-0.30;99.90
21184;DHT22;18176;49.502;11.754;2022-11-20T04:53:36;-0.30;99.90
21184;DHT22;18176;49.502;11.754;2022-11-20T04:57:36;-0.30;99.90
21184;DHT22;18176;49.502;11.754;2022-11-20T05:01:36;-0.30;99.90
21184;DHT22;18176;49.502;11.754;2022-11-20T05:05:39;-0.30;99.90
21184;DHT22;18176;49.502;11.754;2022-11-20T05:09:39;-0.30;99.90
21184;DHT22;18176;49.502;11.754;2022-11-20T05:13:40;-0.30;99.90
21184;DHT22;18176;49.502;11.754;2022-11-20T05:17:41;-0.30;99.90
21184;DHT22;18176;49.502;11.754;2022-11-20T05:21:48;-0.30;99.90
21184;DHT22;18176;49.502;11.754;2022-11-20T05:25:52;-0.30;99.90
21184;DHT22;18176;49.502;11.754;2022-11-20T05:29:55;-0.20;99.90
21184;DHT22;18176;49.502;11.754;2022-11-20T05:33:56;-0.20;99.90
21184;DHT22;18176;49.502;11.754;2022-11-20T05:37:59;-0.20;99.90
21184;DHT22;18176;49.502;11.754;2022-11-20T05:42:00;-0.20;99.90
21184;DHT22;18176;49.502;11.754;2022-11-20T05:46:15;-0.20;99.90
21184;DHT22;18176;49.502;11.754;2022-11-20T05:50:24;-0.20;99.90
21184;DHT22;18176;49.502;11.754;2022-11-20T05:54:27;-0.20;99.90
21184;DHT22;18176;49.502;11.754;2022-11-20T05:58:28;-0.10;99.90
21184;DHT22;18176;49.502;11.754;2022-11-20T06:02:29;-0.10;99.90
21184;DHT22;18176;49.502;11.754;2022-11-20T06:06:29;-0.10;99.90
21184;DHT22;18176;49.502;11.754;2022-11-20T06:10:32;-0.10;99.90
21184;DHT22;18176;49.502;11.754;2022-11-20T06:14:32;-0.10;99.90
21184;DHT22;18176;49.502;11.754;2022-11-20T06:18:32;-0.10;99.90
21184;DHT22;18176;49.502;11.754;2022-11-20T06:22:32;-0.10;99.90
21184;DHT22;18176;49.502;11.754;2022-11-20T06:26:36;-0.10;99.90
21184;DHT22;18176;49.502;11.754;2022-11-20T06:30:36;-0.10;99.90
21184;DHT22;18176;49.502;11.754;2022-11-20T06:34:37;0.00;99.90
21184;DHT22;18176;49.502;11.754;2022-11-20T06:38:38;0.00;99.90
21184;DHT22;18176;49.502;11.754;2022-11-20T06:42:41;0.00;99.90
21184;DHT22;18176;49.502;11.754;2022-11-20T06:46:41;0.00;99.90
21184;DHT22;18176;49.502;11.754;2022-11-20T06:50:41;0.00;99.90
21184;DHT22;18176;49.502;11.754;2022-11-20T06:54:41;0.10;99.90
21184;DHT22;18176;49.502;11.754;2022-11-20T06:58:44;0.10;99.90
21184;DHT22;18176;49.502;11.754;2022-11-20T07:02:44;0.20;99.90
21184;DHT22;18176;49.502;11.754;2022-11-20T07:06:44;0.20;99.90
21184;DHT22;18176;49.502;11.754;2022-11-20T07:10:44;0.20;99.90
21184;DHT22;18176;49.502;11.754;2022-11-20T07:14:47;0.30;99.90
21184;DHT22;18176;49.502;11.754;2022-11-20T07:18:47;0.30;99.90
21184;DHT22;18176;49.502;11.754;2022-11-20T07:22:53;0.30;99.90
21184;DHT22;18176;49.502;11.754;2022-11-20T07:26:54;0.40;99.90
21184;DHT22;18176;49.502;11.754;2022-11-20T07:30:57;0.40;99.90
21184;DHT22;18176;49.502;11.754;2022-11-20T07:34:58;0.40;99.90
21184;DHT22;18176;49.502;11.754;2022-11-20T07:38:58;0.40;99.90
21184;DHT22;18176;49.502;11.754;2022-11-20T07:42:58;0.40;99.90
21184;DHT22;18176;49.502;11.754;2022-11-20T07:47:01;0.40;99.90
21184;DHT22;18176;49.502;11.754;2022-11-20T07:51:02;0.40;99.90
21184;DHT22;18176;49.502;11.754;2022-11-20T07:55:02;0.50;99.90
21184;DHT22;18176;49.502;11.754;2022-11-20T07:59:03;0.50;99.90
21184;DHT22;18176;49.502;11.754;2022-11-20T08:03:07;0.40;99.90
21184;DHT22;18176;49.502;11.754;2022-11-20T08:07:07;0.50;99.90
21184;DHT22;18176;49.502;11.754;2022-11-20T08:11:07;0.40;99.90
21184;DHT22;18176;49.502;11.754;2022-11-20T08:15:20;0.40;99.90
21184;DHT22;18176;49.502;11.754;2022-11-20T08:19:23;0.50;99.90
21184;DHT22;18176;49.502;11.754;2022-11-20T08:23:23;0.50;99.90
21184;DHT22;18176;49.502;11.754;2022-11-20T08:27:23;0.50;99.90
21184;DHT22;18176;49.502;11.754;2022-11-20T08:31:26;0.60;99.90
21184;DHT22;18176;49.502;11.754;2022-11-20T08:35:32;0.60;99.90
21184;DHT22;18176;49.502;11.754;2022-11-20T08:39:33;0.60;99.90
21184;DHT22;18176;49.502;11.754;2022-11-20T08:43:33;0.60;99.90
21184;DHT22;18176;49.502;11.754;2022-11-20T08:47:33;0.70;99.90
21184;DHT22;18176;49.502;11.754;2022-11-20T08:51:37;0.70;99.90
21184;DHT22;18176;49.502;11.754;2022-11-20T08:55:37;0.70;99.90
21184;DHT22;18176;49.502;11.754;2022-11-20T08:59:37;0.70;99.90
21184;DHT22;18176;49.502;11.754;2022-11-20T09:03:57;0.70;99.90
21184;DHT22;18176;49.502;11.754;2022-11-20T09:08:00;0.70;99.90
21184;DHT22;18176;49.502;11.754;2022-11-20T09:12:00;0.70;99.90
21184;DHT22;18176;49.502;11.754;2022-11-20T09:16:02;0.70;99.90
21184;DHT22;18176;49.502;11.754;2022-11-20T09:20:05;0.80;99.90
21184;DHT22;18176;49.502;11.754;2022-11-20T09:24:09;0.70;99.90
21184;DHT22;18176;49.502;11.754;2022-11-20T09:28:09;0.80;99.90
21184;DHT22;18176;49.502;11.754;2022-11-20T09:32:10;0.80;99.90
21184;DHT22;18176;49.502;11.754;2022-11-20T09:36:10;0.80;99.90
21184;DHT22;18176;49.502;11.754;2022-11-20T09:40:19;0.80;99.90
21184;DHT22;18176;49.502;11.754;2022-11-20T09:44:33;0.80;99.90
21184;DHT22;18176;49.502;11.754;2022-11-20T09:48:55;0.80;99.90
21184;DHT22;18176;49.502;11.754;2022-11-20T09:53:13;0.90;99.90
21184;DHT22;18176;49.502;11.754;2022-11-20T09:57:31;0.90;99.90
21184;DHT22;18176;49.502;11.754;2022-11-20T10:01:36;1.00;99.90
21184;DHT22;18176;49.502;11.754;2022-11-20T10:05:43;1.00;99.90
21184;DHT22;18176;49.502;11.754;2022-11-20T10:09:51;1.00;99.90
21184;DHT22;18176;49.502;11.754;2022-11-20T10:14:03;1.00;99.90
21184;DHT22;18176;49.502;11.754;2022-11-20T10:18:23;1.10;99.90
21184;DHT22;18176;49.502;11.754;2022-11-20T10:22:44;1.10;99.90
21184;DHT22;18176;49.502;11.754;2022-11-20T10:27:02;1.20;99.90
21184;DHT22;18176;49.502;11.754;2022-11-20T10:31:22;1.30;99.90
21184;DHT22;18176;49.502;11.754;2022-11-20T10:35:35;1.40;99.90
21184;DHT22;18176;49.502;11.754;2022-11-20T10:39:42;1.40;99.90
21184;DHT22;18176;49.502;11.754;2022-11-20T10:43:53;1.50;99.90
21184;DHT22;18176;49.502;11.754;2022-11-20T10:48:10;1.40;99.90
21184;DHT22;18176;49.502;11.754;2022-11-20T10:52:19;1.60;99.90
21184;DHT22;18176;49.502;11.754;2022-11-20T10:56:33;1.60;99.90
21184;DHT22;18176;49.502;11.754;2022-11-20T11:00:45;1.60;99.90
21184;DHT22;18176;49.502;11.754;2022-11-20T11:04:50;1.70;99.90
21184;DHT22;18176;49.502;11.754;2022-11-20T11:08:53;1.80;99.90
21184;DHT22;18176;49.502;11.754;2022-11-20T11:12:56;1.90;99.90
21184;DHT22;18176;49.502;11.754;2022-11-20T11:16:58;2.00;99.90
21184;DHT22;18176;49.502;11.754;2022-11-20T11:21:03;2.10;99.90
21184;DHT22;18176;49.502;11.754;2022-11-20T11:25:32;2.10;99.90
21184;DHT22;18176;49.502;11.754;2022-11-20T11:30:46;1.90;99.90
21184;DHT22;18176;49.502;11.754;2022-11-20T11:35:25;1.80;99.90
21184;DHT22;18176;49.502;11.754;2022-11-20T11:40:17;1.80;99.90
21184;DHT22;18176;49.502;11.754;2022-11-20T11:45:02;1.70;99.90
21184;DHT22;18176;49.502;11.754;2022-11-20T11:49:17;1.70;99.90
21184;DHT22;18176;49.502;11.754;2022-11-20T11:53:21;1.80;99.90
21184;DHT22;18176;49.502;11.754;2022-11-20T11:57:41;1.90;99.90
21184;DHT22;18176;49.502;11.754;2022-11-20T12:02:18;1.90;99.90
21184;DHT22;18176;49.502;11.754;2022-11-20T12:06:37;1.90;99.90
21184;DHT22;18176;49.502;11.754;2022-11-20T12:10:52;1.60;99.90
21184;DHT22;18176;49.502;11.754;2022-11-20T12:25:26;2.20;99.90
21184;DHT22;18176;49.502;11.754;2022-11-20T12:34:45;3.10;99.90
21184;DHT22;18176;49.502;11.754;2022-11-20T12:39:02;3.20;99.90
21184;DHT22;18176;49.502;11.754;2022-11-20T12:43:19;3.20;99.90
21184;DHT22;18176;49.502;11.754;2022-11-20T12:47:43;3.30;99.90
21184;DHT22;18176;49.502;11.754;2022-11-20T12:52:20;3.20;99.90
21184;DHT22;18176;49.502;11.754;2022-11-20T12:56:37;3.20;99.90
21184;DHT22;18176;49.502;11.754;2022-11-20T13:00:55;3.30;99.90
21184;DHT22;18176;49.502;11.754;2022-11-20T13:05:17;3.30;99.90
21184;DHT22;18176;49.502;11.754;2022-11-20T13:09:22;3.40;99.90
21184;DHT22;18176;49.502;11.754;2022-11-20T13:13:31;3.30;99.90
21184;DHT22;18176;49.502;11.754;2022-11-20T13:17:47;3.30;99.90
21184;DHT22;18176;49.502;11.754;2022-11-20T13:21:54;3.20;99.90
21184;DHT22;18176;49.502;11.754;2022-11-20T13:26:06;3.20;99.90
21184;DHT22;18176;49.502;11.754;2022-11-20T13:30:18;3.20;99.90
21184;DHT22;18176;49.502;11.754;2022-11-20T13:34:26;3.20;99.90
21184;DHT22;18176;49.502;11.754;2022-11-20T13:38:27;3.20;99.90
21184;DHT22;18176;49.502;11.754;2022-11-20T13:48:04;3.00;99.90
21184;DHT22;18176;49.502;11.754;2022-11-20T13:57:55;2.90;99.90
21184;DHT22;18176;49.502;11.754;2022-11-20T14:02:02;2.80;99.90
21184;DHT22;18176;49.502;11.754;2022-11-20T14:06:05;2.80;99.90
21184;DHT22;18176;49.502;11.754;2022-11-20T14:10:26;2.90;99.90
21184;DHT22;18176;49.502;11.754;2022-11-20T14:14:30;2.90;99.90
21184;DHT22;18176;49.502;11.754;2022-11-20T14:18:33;2.90;99.90
21184;DHT22;18176;49.502;11.754;2022-11-20T14:22:33;2.80;99.90
21184;DHT22;18176;49.502;11.754;2022-11-20T14:26:37;2.70;99.90
21184;DHT22;18176;49.502;11.754;2022-11-20T14:30:44;2.60;99.90
21184;DHT22;18176;49.502;11.754;2022-11-20T14:34:48;2.60;99.90
21184;DHT22;18176;49.502;11.754;2022-11-20T14:38:50;2.60;99.90
21184;DHT22;18176;49.502;11.754;2022-11-20T14:42:55;2.50;99.90
21184;DHT22;18176;49.502;11.754;2022-11-20T14:46:56;2.50;99.90
21184;DHT22;18176;49.502;11.754;2022-11-20T14:50:57;2.50;99.90
21184;DHT22;18176;49.502;11.754;2022-11-20T14:54:58;2.50;99.90
21184;DHT22;18176;49.502;11.754;2022-11-20T14:59:01;2.50;99.90
21184;DHT22;18176;49.502;11.754;2022-11-20T15:03:02;2.40;99.90
21184;DHT22;18176;49.502;11.754;2022-11-20T15:07:29;2.40;99.90
21184;DHT22;18176;49.502;11.754;2022-11-20T15:11:32;2.40;99.90
21184;DHT22;18176;49.502;11.754;2022-11-20T15:20:46;2.20;99.90
21184;DHT22;18176;49.502;11.754;2022-11-20T15:25:33;2.20;99.90
21184;DHT22;18176;49.502;11.754;2022-11-20T15:29:34;2.10;99.90
21184;DHT22;18176;49.502;11.754;2022-11-20T15:33:34;2.10;99.90
21184;DHT22;18176;49.502;11.754;2022-11-20T15:37:37;2.10;99.90
21184;DHT22;18176;49.502;11.754;2022-11-20T15:41:38;2.10;99.90
21184;DHT22;18176;49.502;11.754;2022-11-20T15:45:40;2.00;99.90
21184;DHT22;18176;49.502;11.754;2022-11-20T15:49:42;2.00;99.90
21184;DHT22;18176;49.502;11.754;2022-11-20T15:53:45;2.00;99.90
21184;DHT22;18176;49.502;11.754;2022-11-20T15:57:45;2.00;99.90
21184;DHT22;18176;49.502;11.754;2022-11-20T16:01:46;2.00;99.90
21184;DHT22;18176;49.502;11.754;2022-11-20T16:05:46;2.00;99.90
21184;DHT22;18176;49.502;11.754;2022-11-20T16:09:49;2.00;99.90
21184;DHT22;18176;49.502;11.754;2022-11-20T16:13:49;2.10;99.90
21184;DHT22;18176;49.502;11.754;2022-11-20T16:18:02;2.10;99.90
21184;DHT22;18176;49.502;11.754;2022-11-20T16:22:02;2.10;99.90
21184;DHT22;18176;49.502;11.754;2022-11-20T16:26:12;2.10;99.90
21184;DHT22;18176;49.502;11.754;2022-11-20T16:30:14;2.10;99.90
21184;DHT22;18176;49.502;11.754;2022-11-20T16:34:16;2.10;99.90
21184;DHT22;18176;49.502;11.754;2022-11-20T16:38:16;2.10;99.90
21184;DHT22;18176;49.502;11.754;2022-11-20T16:42:19;2.00;99.90
21184;DHT22;18176;49.502;11.754;2022-11-20T16:46:21;2.10;99.90
21184;DHT22;18176;49.502;11.754;2022-11-20T16:50:21;2.00;99.90
21184;DHT22;18176;49.502;11.754;2022-11-20T16:54:22;2.10;99.90
21184;DHT22;18176;49.502;11.754;2022-11-20T16:58:25;2.10;99.90
21184;DHT22;18176;49.502;11.754;2022-11-20T17:02:26;2.10;99.90
21184;DHT22;18176;49.502;11.754;2022-11-20T17:06:28;2.10;99.90
21184;DHT22;18176;49.502;11.754;2022-11-20T17:10:29;2.10;99.90
21184;DHT22;18176;49.502;11.754;2022-11-20T17:14:32;2.00;99.90
21184;DHT22;18176;49.502;11.754;2022-11-20T17:18:32;2.00;99.90
21184;DHT22;18176;49.502;11.754;2022-11-20T17:22:33;2.10;99.90
21184;DHT22;18176;49.502;11.754;2022-11-20T17:26:34;2.10;99.90
21184;DHT22;18176;49.502;11.754;2022-11-20T17:30:37;2.10;99.90
21184;DHT22;18176;49.502;11.754;2022-11-20T17:34:37;2.10;99.90
21184;DHT22;18176;49.502;11.754;2022-11-20T17:38:37;2.10;99.90
21184;DHT22;18176;49.502;11.754;2022-11-20T17:42:37;2.00;99.90
21184;DHT22;18176;49.502;11.754;2022-11-20T17:46:40;2.10;99.90
21184;DHT22;18176;49.502;11.754;2022-11-20T17:50:40;2.10;99.90
21184;DHT22;18176;49.502;11.754;2022-11-20T17:54:40;2.10;99.90
21184;DHT22;18176;49.502;11.754;2022-11-20T17:58:40;2.10;99.90
21184;DHT22;18176;49.502;11.754;2022-11-20T18:02:44;2.10;99.90
21184;DHT22;18176;49.502;11.754;2022-11-20T18:06:44;2.10;99.90
21184;DHT22;18176;49.502;11.754;2022-11-20T18:10:44;2.00;99.90
21184;DHT22;18176;49.502;11.754;2022-11-20T18:14:47;1.90;99.90
21184;DHT22;18176;49.502;11.754;2022-11-20T18:18:52;1.80;99.90
21184;DHT22;18176;49.502;11.754;2022-11-20T18:22:53;1.60;99.90
21184;DHT22;18176;49.502;11.754;2022-11-20T18:26:53;1.50;99.90
21184;DHT22;18176;49.502;11.754;2022-11-20T18:30:54;1.30;99.90
21184;DHT22;18176;49.502;11.754;2022-11-20T18:34:57;1.30;99.90
21184;DHT22;18176;49.502;11.754;2022-11-20T18:38:58;1.30;99.90
21184;DHT22;18176;49.502;11.754;2022-11-20T18:42:59;1.40;99.90
21184;DHT22;18176;49.502;11.754;2022-11-20T18:47:13;1.40;99.90
21184;DHT22;18176;49.502;11.754;2022-11-20T18:51:18;1.30;99.90
21184;DHT22;18176;49.502;11.754;2022-11-20T18:55:18;1.30;99.90
21184;DHT22;18176;49.502;11.754;2022-11-20T18:59:21;1.30;99.90
21184;DHT22;18176;49.502;11.754;2022-11-20T19:03:21;1.40;99.90
21184;DHT22;18176;49.502;11.754;2022-11-20T19:07:24;1.30;99.90
21184;DHT22;18176;49.502;11.754;2022-11-20T19:11:26;1.20;99.90
21184;DHT22;18176;49.502;11.754;2022-11-20T19:15:26;1.10;99.90
21184;DHT22;18176;49.502;11.754;2022-11-20T19:19:27;1.10;99.90
21184;DHT22;18176;49.502;11.754;2022-11-20T19:23:30;1.00;99.90
21184;DHT22;18176;49.502;11.754;2022-11-20T19:27:30;1.00;99.90
21184;DHT22;18176;49.502;11.754;2022-11-20T19:31:31;1.10;99.90
21184;DHT22;18176;49.502;11.754;2022-11-20T19:35:32;1.20;99.90
21184;DHT22;18176;49.502;11.754;2022-11-20T19:39:35;1.20;99.90
21184;DHT22;18176;49.502;11.754;2022-11-20T19:43:36;1.30;99.90
21184;DHT22;18176;49.502;11.754;2022-11-20T19:47:38;1.40;99.90
21184;DHT22;18176;49.502;11.754;2022-11-20T19:51:59;1.50;99.90
21184;DHT22;18176;49.502;11.754;2022-11-20T19:56:02;1.50;99.90
21184;DHT22;18176;49.502;11.754;2022-11-20T20:00:04;1.50;99.90
21184;DHT22;18176;49.502;11.754;2022-11-20T20:04:05;1.50;99.90
21184;DHT22;18176;49.502;11.754;2022-11-20T20:08:06;1.50;99.90
21184;DHT22;18176;49.502;11.754;2022-11-20T20:12:15;1.50;99.90
21184;DHT22;18176;49.502;11.754;2022-11-20T20:16:17;1.50;99.90
21184;DHT22;18176;49.502;11.754;2022-11-20T20:20:19;1.60;99.90
21184;DHT22;18176;49.502;11.754;2022-11-20T20:24:20;1.60;99.90
21184;DHT22;18176;49.502;11.754;2022-11-20T20:28:23;1.50;99.90
21184;DHT22;18176;49.502;11.754;2022-11-20T20:32:24;1.40;99.90
21184;DHT22;18176;49.502;11.754;2022-11-20T20:36:24;1.40;99.90
21184;DHT22;18176;49.502;11.754;2022-11-20T20:40:28;1.40;99.90
21184;DHT22;18176;49.502;11.754;2022-11-20T20:44:31;1.40;99.90
21184;DHT22;18176;49.502;11.754;2022-11-20T20:48:43;1.40;99.90
21184;DHT22;18176;49.502;11.754;2022-11-20T20:52:50;1.40;99.90
21184;DHT22;18176;49.502;11.754;2022-11-20T20:56:50;1.40;99.90
21184;DHT22;18176;49.502;11.754;2022-11-20T21:01:00;1.50;99.90
21184;DHT22;18176;49.502;11.754;2022-11-20T21:05:02;1.50;99.90
21184;DHT22;18176;49.502;11.754;2022-11-20T21:09:06;1.50;99.90
21184;DHT22;18176;49.502;11.754;2022-11-20T21:13:10;1.50;99.90
21184;DHT22;18176;49.502;11.754;2022-11-20T21:17:13;1.50;99.90
21184;DHT22;18176;49.502;11.754;2022-11-20T21:21:14;1.50;99.90
21184;DHT22;18176;49.502;11.754;2022-11-20T21:25:28;1.50;99.90
21184;DHT22;18176;49.502;11.754;2022-11-20T21:29:29;1.50;99.90
21184;DHT22;18176;49.502;11.754;2022-11-20T21:33:37;1.50;99.90
21184;DHT22;18176;49.502;11.754;2022-11-20T21:37:38;1.50;99.90
21184;DHT22;18176;49.502;11.754;2022-11-20T21:41:39;1.50;99.90
21184;DHT22;18176;49.502;11.754;2022-11-20T21:45:40;1.50;99.90
21184;DHT22;18176;49.502;11.754;2022-11-20T21:49:43;1.60;99.90
21184;DHT22;18176;49.502;11.754;2022-11-20T21:53:44;1.80;99.90
21184;DHT22;18176;49.502;11.754;2022-11-20T21:57:48;2.10;99.90
21184;DHT22;18176;49.502;11.754;2022-11-20T22:01:48;2.20;99.90
21184;DHT22;18176;49.502;11.754;2022-11-20T22:06:00;2.50;99.90
21184;DHT22;18176;49.502;11.754;2022-11-20T22:10:00;2.60;99.90
21184;DHT22;18176;49.502;11.754;2022-11-20T22:14:01;2.70;99.90
21184;DHT22;18176;49.502;11.754;2022-11-20T22:18:13;2.80;99.90
21184;DHT22;18176;49.502;11.754;2022-11-20T22:22:16;2.90;99.90
21184;DHT22;18176;49.502;11.754;2022-11-20T22:26:17;3.00;99.90
21184;DHT22;18176;49.502;11.754;2022-11-20T22:30:18;3.00;99.90
21184;DHT22;18176;49.502;11.754;2022-11-20T22:34:19;3.00;99.90
21184;DHT22;18176;49.502;11.754;2022-11-20T22:38:24;3.00;99.90
21184;DHT22;18176;49.502;11.754;2022-11-20T22:42:25;3.00;99.90
21184;DHT22;18176;49.502;11.754;2022-11-20T22:46:27;3.00;99.90
21184;DHT22;18176;49.502;11.754;2022-11-20T22:50:27;3.00;99.90
21184;DHT22;18176;49.502;11.754;2022-11-20T22:54:30;2.90;99.90
21184;DHT22;18176;49.502;11.754;2022-11-20T22:58:31;2.90;99.90
21184;DHT22;18176;49.502;11.754;2022-11-20T23:02:32;3.00;99.90
21184;DHT22;18176;49.502;11.754;2022-11-20T23:06:33;2.90;99.90
21184;DHT22;18176;49.502;11.754;2022-11-20T23:10:35;2.80;99.90
21184;DHT22;18176;49.502;11.754;2022-11-20T23:14:36;2.80;99.90
21184;DHT22;18176;49.502;11.754;2022-11-20T23:18:36;2.80;99.90
21184;DHT22;18176;49.502;11.754;2022-11-20T23:22:37;2.80;99.90
21184;DHT22;18176;49.502;11.754;2022-11-20T23:26:40;2.80;99.90
21184;DHT22;18176;49.502;11.754;2022-11-20T23:30:45;2.80;99.90
21184;DHT22;18176;49.502;11.754;2022-11-20T23:34:46;2.90;99.90
21184;DHT22;18176;49.502;11.754;2022-11-20T23:38:46;2.90;99.90
21184;DHT22;18176;49.502;11.754;2022-11-20T23:42:48;3.00;99.90
21184;DHT22;18176;49.502;11.754;2022-11-20T23:47:01;3.00;99.90
21184;DHT22;18176;49.502;11.754;2022-11-20T23:51:02;3.00;99.90
21184;DHT22;18176;49.502;11.754;2022-11-20T23:55:03;3.10;99.90
21184;DHT22;18176;49.502;11.754;2022-11-20T23:59:08;3.20;99.90
